sim
Sign-in with your pilot id or email,
or register
Callsign
Passwort

Schedule Details

Flight Number: UAE500
Departure: Dubai International Airport (OMDB) at 17:50
Arrival: Mumbai Chhatrapati Shivaji International Airport (VABB) at 20:45
Route: Emirates Passenger Schedule. Enter filed route here before submitting Pirep.

Weather Information
Getting current METAR information for OMDB 152200Z 05003KT 030V090 CAVOK 24/19 Q1016 NOSIG
Getting current METAR information for VABB 152230Z 36004KT 2100 HZ NSC 24/20 Q1011 NOSIG

Schedule Frequency

Route Map